createdAt,value
2022-10-19T00:02:13.314Z,1.85
2022-10-19T00:04:40.586Z,2.25
2022-10-19T00:07:07.884Z,2.53
2022-10-19T00:09:35.067Z,2.55
2022-10-19T00:12:02.414Z,1.90
2022-10-19T00:14:29.684Z,1.80
2022-10-19T00:16:58.208Z,1.70
2022-10-19T00:19:25.434Z,1.98
2022-10-19T00:21:52.662Z,2.15
2022-10-19T00:24:19.944Z,2.40
2022-10-19T00:26:47.232Z,2.75
2022-10-19T00:29:14.680Z,2.05
2022-10-19T00:31:42.148Z,1.83
2022-10-19T00:34:09.993Z,1.88
2022-10-19T00:36:37.232Z,4.13
2022-10-19T00:39:04.557Z,2.33
2022-10-19T00:41:31.900Z,2.95
2022-10-19T00:43:59.205Z,1.83
2022-10-19T00:46:26.436Z,1.42
2022-10-19T00:48:53.689Z,3.13
2022-10-19T00:51:20.927Z,3.45
2022-10-19T00:53:48.218Z,2.05
2022-10-19T00:56:15.590Z,2.22
2022-10-19T00:58:42.993Z,1.80
2022-10-19T01:01:10.542Z,3.13
2022-10-19T01:03:37.985Z,2.15
2022-10-19T01:06:05.290Z,2.10
2022-10-19T01:08:32.507Z,2.85
2022-10-19T01:10:59.817Z,2.10
2022-10-19T01:13:30.226Z,1.88
2022-10-19T01:15:57.476Z,2.00
2022-10-19T01:18:24.672Z,1.80
2022-10-19T01:20:51.951Z,2.20
2022-10-19T01:23:19.208Z,1.73
2022-10-19T01:25:46.441Z,0.95
2022-10-19T01:28:13.701Z,1.90
2022-10-19T01:30:41.081Z,2.17
2022-10-19T01:33:08.293Z,2.03
2022-10-19T01:35:35.603Z,1.23
2022-10-19T01:38:02.855Z,1.70
2022-10-19T01:40:30.113Z,1.90
2022-10-19T01:42:57.311Z,2.42
2022-10-19T01:45:24.541Z,2.03
2022-10-19T01:47:51.738Z,2.10
2022-10-19T01:50:19.062Z,2.20
2022-10-19T01:52:46.234Z,1.15
2022-10-19T01:55:13.441Z,2.83
2022-10-19T01:57:40.723Z,1.85
2022-10-19T02:00:08.022Z,2.05
2022-10-19T02:02:40.964Z,3.65
2022-10-19T02:05:08.160Z,2.30
2022-10-19T02:07:35.351Z,2.10
2022-10-19T02:10:02.651Z,2.88
2022-10-19T02:12:29.889Z,4.88
2022-10-19T02:14:57.262Z,2.05
2022-10-19T02:17:24.755Z,3.08
2022-10-19T02:19:52.105Z,3.03
2022-10-19T02:22:19.403Z,1.80
2022-10-19T02:24:46.713Z,1.75
2022-10-19T02:27:13.974Z,2.10
2022-10-19T02:29:41.132Z,1.77
2022-10-19T02:32:08.406Z,1.65
2022-10-19T02:34:35.611Z,2.58
2022-10-19T02:37:02.887Z,2.10
2022-10-19T02:39:30.133Z,1.23
2022-10-19T02:41:57.357Z,1.83
2022-10-19T02:44:24.580Z,1.42
2022-10-19T02:46:51.858Z,1.65
2022-10-19T02:49:19.009Z,1.77
2022-10-19T02:51:46.277Z,2.38
2022-10-19T02:54:13.477Z,2.72
2022-10-19T02:56:40.716Z,3.55
2022-10-19T02:59:07.902Z,2.17
2022-10-19T03:01:35.196Z,2.30
2022-10-19T03:04:02.359Z,1.75
2022-10-19T03:06:29.558Z,1.35
2022-10-19T03:08:56.847Z,2.72
2022-10-19T03:11:24.042Z,1.63
2022-10-19T03:13:51.239Z,2.30
2022-10-19T03:16:18.534Z,2.15
2022-10-19T03:18:45.749Z,1.55
2022-10-19T03:21:12.991Z,2.10
2022-10-19T03:23:40.255Z,3.25
2022-10-19T03:26:09.982Z,2.25
2022-10-19T03:28:39.517Z,1.70
2022-10-19T03:31:06.767Z,2.72
2022-10-19T03:33:33.941Z,2.08
2022-10-19T03:36:01.159Z,3.65
2022-10-19T03:38:28.395Z,2.45
2022-10-19T03:40:55.614Z,2.25
2022-10-19T03:43:22.825Z,3.10
2022-10-19T03:45:50.004Z,1.90
2022-10-19T03:48:17.197Z,2.03
2022-10-19T03:50:44.370Z,2.65
2022-10-19T03:53:11.615Z,2.80
2022-10-19T03:55:38.787Z,2.20
2022-10-19T03:58:05.997Z,3.10
2022-10-19T04:00:33.214Z,3.33
2022-10-19T04:03:00.394Z,2.47
2022-10-19T04:05:27.558Z,2.20
2022-10-19T04:07:54.821Z,2.03
2022-10-19T04:10:21.973Z,2.35
2022-10-19T04:12:53.669Z,2.80
2022-10-19T04:15:21.228Z,2.67
2022-10-19T04:17:48.743Z,2.28
2022-10-19T04:20:16.006Z,2.63
2022-10-19T04:22:43.254Z,2.70
2022-10-19T04:25:12.441Z,2.30
2022-10-19T04:27:39.645Z,1.73
2022-10-19T04:30:06.953Z,2.20
2022-10-19T04:32:34.197Z,2.60
2022-10-19T04:35:01.429Z,2.38
2022-10-19T04:37:28.642Z,2.88
2022-10-19T04:39:55.882Z,2.58
2022-10-19T04:42:23.057Z,2.50
2022-10-19T04:44:50.462Z,3.40
2022-10-19T04:47:17.792Z,4.03
2022-10-19T04:49:45.086Z,2.88
2022-10-19T04:52:12.370Z,3.15
2022-10-19T04:54:39.681Z,3.50
2022-10-19T04:57:06.830Z,2.95
2022-10-19T04:59:34.166Z,3.40
2022-10-19T05:02:05.590Z,3.70
2022-10-19T05:04:33.700Z,3.83
2022-10-19T05:07:01.099Z,3.22
2022-10-19T05:09:28.428Z,3.30
2022-10-19T05:11:55.635Z,4.78
2022-10-19T05:14:22.995Z,3.78
2022-10-19T05:16:50.430Z,3.97
2022-10-19T05:19:17.670Z,3.70
2022-10-19T05:21:44.866Z,3.15
2022-10-19T05:24:12.237Z,3.10
2022-10-19T05:26:39.424Z,4.07
2022-10-19T05:29:06.847Z,4.88
2022-10-19T05:31:34.172Z,3.83
2022-10-19T05:34:01.564Z,5.25
2022-10-19T05:36:28.857Z,4.22
2022-10-19T05:38:56.198Z,3.45
2022-10-19T05:41:23.601Z,3.83
2022-10-19T05:43:50.990Z,3.75
2022-10-19T05:46:18.446Z,3.50
2022-10-19T05:48:45.740Z,3.75
2022-10-19T05:51:13.041Z,4.50
2022-10-19T05:53:40.359Z,4.22
2022-10-19T05:56:07.563Z,4.78
2022-10-19T05:58:34.891Z,3.95
2022-10-19T06:01:02.137Z,3.95
2022-10-19T06:03:29.454Z,4.53
2022-10-19T06:05:56.931Z,3.90
2022-10-19T06:08:24.151Z,8.05
2022-10-19T06:10:51.414Z,4.78
2022-10-19T06:13:18.682Z,3.22
2022-10-19T06:15:46.907Z,4.65
2022-10-19T06:18:14.197Z,4.85
2022-10-19T06:20:41.569Z,6.93
2022-10-19T06:23:08.725Z,5.55
2022-10-19T06:25:36.209Z,5.55
2022-10-19T06:28:03.496Z,5.00
2022-10-19T06:30:30.770Z,5.00
2022-10-19T06:32:58.267Z,4.55
2022-10-19T06:35:25.746Z,3.85
2022-10-19T06:37:53.104Z,4.70
2022-10-19T06:40:20.586Z,5.40
2022-10-19T06:42:47.882Z,5.93
2022-10-19T06:45:15.115Z,5.18
2022-10-19T06:47:42.424Z,5.13
2022-10-19T06:50:09.709Z,5.03
2022-10-19T06:52:37.484Z,4.18
2022-10-19T06:55:04.809Z,4.35
2022-10-19T06:57:32.477Z,6.10
2022-10-19T06:59:59.945Z,6.32
2022-10-19T07:02:27.209Z,3.78
2022-10-19T07:04:54.586Z,5.35
2022-10-19T07:07:21.751Z,4.43
2022-10-19T07:09:49.260Z,5.22
2022-10-19T07:12:16.570Z,4.22
2022-10-19T07:14:43.976Z,3.60
2022-10-19T07:17:11.349Z,5.82
2022-10-19T07:19:39.773Z,5.93
2022-10-19T07:22:06.955Z,4.72
2022-10-19T07:24:34.310Z,6.13
2022-10-19T07:27:01.593Z,4.93
2022-10-19T07:29:28.996Z,4.80
2022-10-19T07:31:56.279Z,4.65
2022-10-19T07:34:25.516Z,6.00
2022-10-19T07:36:55.582Z,3.55
2022-10-19T07:39:23.136Z,4.07
2022-10-19T07:41:50.469Z,4.00
2022-10-19T07:44:17.740Z,5.18
2022-10-19T07:46:45.205Z,3.50
2022-10-19T07:49:12.412Z,3.85
2022-10-19T07:51:39.670Z,3.58
2022-10-19T07:54:06.893Z,4.40
2022-10-19T07:56:34.197Z,4.03
2022-10-19T07:59:01.577Z,3.30
2022-10-19T08:01:28.887Z,3.58
2022-10-19T08:06:43.385Z,4.28
2022-10-19T08:09:15.672Z,3.70
2022-10-19T08:11:50.237Z,3.08
2022-10-19T08:14:17.425Z,5.07
2022-10-19T08:16:44.712Z,3.70
2022-10-19T08:19:11.923Z,3.92
2022-10-19T08:21:39.161Z,6.05
2022-10-19T08:24:06.532Z,3.33
2022-10-19T08:26:33.761Z,4.65
2022-10-19T08:29:01.041Z,4.07
2022-10-19T08:31:28.302Z,3.80
2022-10-19T08:33:55.464Z,2.92
2022-10-19T08:36:22.795Z,4.80
2022-10-19T08:38:50.018Z,3.20
2022-10-19T08:41:17.338Z,4.30
2022-10-19T08:43:44.560Z,4.43
2022-10-19T08:46:13.004Z,4.63
2022-10-19T08:48:43.053Z,5.28
2022-10-19T08:51:10.462Z,4.30
2022-10-19T08:53:37.643Z,3.95
2022-10-19T08:56:05.153Z,4.47
2022-10-19T08:58:32.544Z,4.45
2022-10-19T09:00:59.739Z,4.20
2022-10-19T09:03:43.877Z,5.88
2022-10-19T09:06:19.880Z,4.60
2022-10-19T09:08:47.326Z,4.25
2022-10-19T09:11:14.536Z,5.20
2022-10-19T09:14:00.561Z,3.92
2022-10-19T09:16:29.053Z,5.28
2022-10-19T09:18:56.438Z,3.72
2022-10-19T09:21:30.984Z,4.18
2022-10-19T09:24:05.302Z,4.18
2022-10-19T09:26:32.515Z,5.40
2022-10-19T09:28:59.758Z,4.47
2022-10-19T09:31:30.362Z,4.07
2022-10-19T09:33:58.919Z,3.90
2022-10-19T09:36:33.235Z,3.58
2022-10-19T09:39:13.493Z,5.15
2022-10-19T09:41:40.762Z,5.35
2022-10-19T09:44:08.103Z,3.80
2022-10-19T09:46:38.582Z,4.25
2022-10-19T09:49:06.240Z,3.97
2022-10-19T09:51:33.526Z,4.85
2022-10-19T09:54:00.774Z,5.70
2022-10-19T09:56:27.980Z,4.93
2022-10-19T09:58:55.239Z,4.30
2022-10-19T10:01:22.574Z,5.45
2022-10-19T10:03:52.513Z,6.45
2022-10-19T10:06:23.324Z,5.47
2022-10-19T10:08:50.788Z,4.95
2022-10-19T10:11:18.140Z,4.95
2022-10-19T10:13:45.379Z,5.07
2022-10-19T10:16:13.019Z,5.05
2022-10-19T10:18:40.204Z,3.85
2022-10-19T10:21:07.548Z,4.13
2022-10-19T10:23:36.568Z,4.72
2022-10-19T10:26:04.064Z,4.15
2022-10-19T10:28:31.305Z,6.60
2022-10-19T10:30:58.606Z,4.68
2022-10-19T10:33:43.755Z,6.63
2022-10-19T10:36:12.026Z,5.38
2022-10-19T10:38:39.189Z,4.32
2022-10-19T10:41:08.370Z,5.00
2022-10-19T10:43:35.727Z,4.28
2022-10-19T10:46:02.954Z,4.85
2022-10-19T10:48:30.174Z,5.35
2022-10-19T10:50:57.447Z,5.18
2022-10-19T10:53:24.626Z,4.57
2022-10-19T10:55:51.910Z,4.05
2022-10-19T10:58:19.153Z,4.35
2022-10-19T11:00:46.516Z,4.57
2022-10-19T11:03:13.863Z,4.05
2022-10-19T11:05:41.477Z,5.90
2022-10-19T11:08:08.806Z,4.47
2022-10-19T11:10:36.234Z,4.38
2022-10-19T11:13:03.568Z,4.72
2022-10-19T11:15:30.827Z,5.80
2022-10-19T11:17:58.076Z,5.05
2022-10-19T11:20:26.488Z,4.63
2022-10-19T11:22:53.793Z,4.10
2022-10-19T11:25:21.238Z,4.22
2022-10-19T11:27:48.534Z,5.68
2022-10-19T11:30:15.893Z,5.40
2022-10-19T11:32:46.002Z,4.45
2022-10-19T11:35:13.615Z,5.38
2022-10-19T11:37:49.447Z,4.50
2022-10-19T11:40:21.258Z,5.05
2022-10-19T11:42:49.519Z,5.25
2022-10-19T11:45:16.792Z,4.90
2022-10-19T11:47:50.953Z,6.03
2022-10-19T11:50:19.600Z,4.55
2022-10-19T11:52:46.902Z,6.28
2022-10-19T11:55:14.202Z,4.18
2022-10-19T11:57:41.502Z,5.45
2022-10-19T12:00:15.479Z,5.30
2022-10-19T12:02:54.505Z,4.80
2022-10-19T12:05:21.728Z,5.13
2022-10-19T12:07:49.219Z,4.32
2022-10-19T12:10:16.988Z,4.28
2022-10-19T12:12:44.582Z,4.63
2022-10-19T12:15:11.903Z,4.35
2022-10-19T12:17:39.168Z,4.72
2022-10-19T12:20:06.426Z,3.78
2022-10-19T12:22:34.684Z,6.05
2022-10-19T12:25:02.002Z,5.32
2022-10-19T12:27:29.246Z,5.63
2022-10-19T12:29:56.453Z,5.00
2022-10-19T12:32:23.844Z,4.22
2022-10-19T12:34:51.345Z,4.80
2022-10-19T12:37:18.564Z,5.82
2022-10-19T12:39:46.568Z,5.22
2022-10-19T12:42:13.908Z,4.60
2022-10-19T12:44:41.137Z,4.88
2022-10-19T12:47:08.416Z,4.75
2022-10-19T12:49:36.687Z,4.07
2022-10-19T12:52:04.074Z,5.22
2022-10-19T12:54:31.551Z,5.38
2022-10-19T12:57:01.768Z,4.30
2022-10-19T12:59:29.181Z,6.63
2022-10-19T13:01:57.119Z,3.63
2022-10-19T13:04:24.569Z,4.45
2022-10-19T13:06:51.847Z,5.15
2022-10-19T13:09:19.392Z,5.75
2022-10-19T13:11:46.633Z,4.78
2022-10-19T13:14:13.862Z,4.43
2022-10-19T13:16:41.160Z,6.70
2022-10-19T13:19:08.486Z,5.25
2022-10-19T13:21:37.660Z,4.28
2022-10-19T13:24:06.757Z,4.68
2022-10-19T13:26:37.794Z,4.20
2022-10-19T13:29:07.692Z,4.57
2022-10-19T13:31:37.520Z,3.92
2022-10-19T13:34:05.366Z,6.28
2022-10-19T13:36:38.764Z,5.20
2022-10-19T13:39:08.531Z,3.78
2022-10-19T13:41:36.216Z,4.97
2022-10-19T13:44:03.766Z,4.30
2022-10-19T13:46:31.521Z,4.25
2022-10-19T13:48:59.555Z,5.68
2022-10-19T13:51:27.323Z,4.53
2022-10-19T13:53:55.996Z,4.68
2022-10-19T13:56:23.659Z,4.78
2022-10-19T13:58:51.229Z,3.65
2022-10-19T14:01:18.948Z,3.97
2022-10-19T14:03:52.806Z,5.88
2022-10-19T14:06:52.973Z,6.93
2022-10-19T14:09:20.806Z,5.00
2022-10-19T14:11:48.911Z,5.75
2022-10-19T14:14:17.127Z,4.75
2022-10-19T14:16:57.216Z,4.63
2022-10-19T14:19:30.182Z,5.50
2022-10-19T14:21:57.785Z,5.28
2022-10-19T14:24:24.952Z,6.13
2022-10-19T14:26:53.540Z,4.90
2022-10-19T14:29:21.041Z,4.75
2022-10-19T14:31:48.662Z,6.07
2022-10-19T14:34:16.602Z,4.53
2022-10-19T14:36:45.043Z,4.20
2022-10-19T14:39:14.423Z,5.80
2022-10-19T14:41:42.813Z,5.72
2022-10-19T14:44:10.364Z,5.60
2022-10-19T14:46:37.899Z,5.97
2022-10-19T14:49:06.985Z,5.25
2022-10-19T14:51:35.371Z,5.18
2022-10-19T14:54:06.727Z,6.68
2022-10-19T14:56:35.701Z,5.88
2022-10-19T14:59:03.236Z,6.15
2022-10-19T15:01:39.929Z,6.65
2022-10-19T15:04:11.269Z,6.43
2022-10-19T15:06:46.595Z,6.95
2022-10-19T15:09:30.269Z,6.60
2022-10-19T15:12:06.640Z,6.70
2022-10-19T15:14:33.832Z,6.50
2022-10-19T15:17:03.717Z,7.90
2022-10-19T15:19:32.522Z,6.93
2022-10-19T15:22:00.299Z,5.82
2022-10-19T15:24:31.876Z,6.45
2022-10-19T15:27:09.088Z,7.72
2022-10-19T15:29:37.610Z,5.93
2022-10-19T15:32:05.661Z,6.75
2022-10-19T15:34:35.056Z,6.90
2022-10-19T15:37:05.665Z,6.53
2022-10-19T15:39:43.333Z,6.45
2022-10-19T15:42:13.962Z,6.45
2022-10-19T15:44:41.627Z,6.18
2022-10-19T15:47:10.870Z,7.03
2022-10-19T15:49:40.575Z,6.55
2022-10-19T15:52:11.037Z,9.00
2022-10-19T15:54:40.934Z,5.78
2022-10-19T15:57:12.186Z,7.40
2022-10-19T15:59:49.790Z,6.18
2022-10-19T16:02:17.348Z,6.85
2022-10-19T16:04:45.002Z,6.22
2022-10-19T16:07:15.954Z,7.65
2022-10-19T16:09:47.235Z,6.10
2022-10-19T16:12:14.662Z,6.68
2022-10-19T16:14:48.364Z,6.05
2022-10-19T16:17:20.531Z,6.60
2022-10-19T16:19:55.630Z,7.32
2022-10-19T16:22:24.511Z,6.35
2022-10-19T16:24:53.350Z,8.77
2022-10-19T16:27:24.991Z,7.00
2022-10-19T16:29:52.444Z,7.13
2022-10-19T16:32:21.192Z,6.53
2022-10-19T16:34:48.980Z,9.75
2022-10-19T16:37:20.882Z,6.47
2022-10-19T16:39:49.688Z,7.13
2022-10-19T16:42:17.159Z,6.32
2022-10-19T16:44:44.558Z,6.82
2022-10-19T16:47:11.936Z,6.45
2022-10-19T16:49:39.349Z,6.35
2022-10-19T16:52:06.648Z,8.73
2022-10-19T16:54:36.226Z,7.45
2022-10-19T16:57:08.642Z,7.75
2022-10-19T16:59:37.225Z,6.40
2022-10-19T17:02:04.600Z,6.05
2022-10-19T17:04:34.276Z,7.13
2022-10-19T17:07:01.546Z,7.03
2022-10-19T17:09:44.289Z,7.57
2022-10-19T17:12:11.735Z,8.23
2022-10-19T17:14:38.995Z,8.50
2022-10-19T17:17:06.791Z,7.00
2022-10-19T17:19:34.101Z,8.77
2022-10-19T17:22:02.996Z,9.70
2022-10-19T17:24:30.449Z,7.45
2022-10-19T17:26:57.884Z,7.32
2022-10-19T17:29:25.177Z,8.55
2022-10-19T17:31:52.426Z,8.32
2022-10-19T17:34:19.683Z,7.35
2022-10-19T17:36:46.949Z,7.90
2022-10-19T17:39:14.754Z,7.03
2022-10-19T17:41:42.020Z,8.52
2022-10-19T17:44:09.837Z,9.60
2022-10-19T17:46:37.679Z,8.90
2022-10-19T17:49:05.756Z,8.43
2022-10-19T17:51:36.762Z,8.60
2022-10-19T17:54:08.817Z,9.65
2022-10-19T17:56:39.093Z,9.13
2022-10-19T17:59:09.365Z,8.25
2022-10-19T18:01:38.680Z,8.55
2022-10-19T18:04:08.531Z,9.68
2022-10-19T18:06:38.397Z,10.18
2022-10-19T18:09:06.251Z,10.57
2022-10-19T18:11:36.210Z,11.07
2022-10-19T18:14:03.929Z,10.57
2022-10-19T18:16:31.179Z,11.63
2022-10-19T18:18:58.474Z,9.32
2022-10-19T18:21:27.850Z,10.27
2022-10-19T18:23:55.038Z,9.25
2022-10-19T18:26:22.431Z,11.43
2022-10-19T18:28:49.737Z,13.27
2022-10-19T18:31:17.008Z,11.43
2022-10-19T18:33:44.245Z,12.35
2022-10-19T18:36:11.553Z,12.70
2022-10-19T18:38:38.832Z,12.07
2022-10-19T18:41:06.185Z,8.93
2022-10-19T18:43:33.563Z,12.63
2022-10-19T18:46:00.779Z,12.45
2022-10-19T18:48:28.083Z,10.15
2022-10-19T18:50:55.537Z,10.57
2022-10-19T18:53:22.923Z,10.00
2022-10-19T18:55:50.142Z,11.48
2022-10-19T18:58:17.570Z,11.02
2022-10-19T19:00:45.780Z,11.50
2022-10-19T19:03:13.268Z,10.90
2022-10-19T19:05:40.545Z,13.00
2022-10-19T19:08:07.812Z,12.00
2022-10-19T19:10:35.076Z,11.50
2022-10-19T19:13:02.334Z,12.05
2022-10-19T19:15:29.592Z,10.65
2022-10-19T19:17:56.874Z,11.88
2022-10-19T19:20:24.323Z,12.52
2022-10-19T19:22:51.568Z,11.32
2022-10-19T19:25:18.853Z,12.77
2022-10-19T19:27:46.145Z,11.60
2022-10-19T19:30:13.312Z,13.38
2022-10-19T19:32:40.609Z,14.68
2022-10-19T19:35:07.868Z,13.73
2022-10-19T19:37:35.330Z,9.05
2022-10-19T19:40:02.914Z,12.45
2022-10-19T19:42:30.294Z,12.57
2022-10-19T19:44:57.763Z,11.98
2022-10-19T19:47:25.193Z,12.25
2022-10-19T19:49:52.748Z,12.60
2022-10-19T19:52:20.318Z,14.02
2022-10-19T19:54:47.637Z,11.02
2022-10-19T19:57:15.128Z,12.38
2022-10-19T19:59:42.703Z,13.05
2022-10-19T20:02:09.968Z,12.95
2022-10-19T20:04:37.573Z,11.20
2022-10-19T20:07:05.246Z,13.45
2022-10-19T20:09:32.506Z,12.98
2022-10-19T20:11:59.818Z,14.63
2022-10-19T20:14:27.194Z,11.38
2022-10-19T20:16:54.559Z,13.30
2022-10-19T20:19:22.161Z,13.75
2022-10-19T20:21:49.474Z,13.48
2022-10-19T20:24:17.141Z,13.57
2022-10-19T20:26:44.429Z,13.27
2022-10-19T20:29:11.694Z,13.63
2022-10-19T20:31:40.424Z,11.88
2022-10-19T20:34:08.074Z,13.68
2022-10-19T20:36:35.365Z,13.73
2022-10-19T20:39:02.593Z,13.98
2022-10-19T20:41:29.903Z,15.30
2022-10-19T20:43:57.246Z,13.93
2022-10-19T20:46:24.776Z,13.90
2022-10-19T20:48:52.306Z,15.77
2022-10-19T20:51:20.662Z,14.63
2022-10-19T20:53:48.000Z,15.43
2022-10-19T20:56:15.274Z,13.35
2022-10-19T20:58:46.198Z,14.85
2022-10-19T21:01:13.553Z,15.27
2022-10-19T21:03:40.790Z,15.63
2022-10-19T21:06:08.061Z,14.90
2022-10-19T21:08:35.439Z,16.42
2022-10-19T21:11:02.825Z,15.02
2022-10-19T21:13:30.160Z,15.88
2022-10-19T21:15:57.437Z,16.58
2022-10-19T21:18:24.676Z,14.95
2022-10-19T21:20:51.830Z,13.80
2022-10-19T21:23:19.136Z,14.90
2022-10-19T21:25:46.397Z,16.60
2022-10-19T21:28:14.387Z,16.15
2022-10-19T21:30:41.742Z,16.75
2022-10-19T21:33:09.134Z,18.35
2022-10-19T21:35:36.418Z,16.95
2022-10-19T21:38:03.741Z,17.73
2022-10-19T21:40:31.051Z,16.88
2022-10-19T21:42:58.284Z,18.63
2022-10-19T21:45:30.316Z,15.80
2022-10-19T21:47:58.204Z,16.88
2022-10-19T21:50:25.379Z,17.33
2022-10-19T21:52:53.038Z,16.38
2022-10-19T21:55:20.302Z,14.02
2022-10-19T21:57:49.821Z,17.05
2022-10-19T22:00:17.214Z,16.48
2022-10-19T22:02:44.450Z,17.05
2022-10-19T22:05:11.686Z,18.00
2022-10-19T22:07:39.058Z,18.35
2022-10-19T22:10:06.434Z,17.50
2022-10-19T22:12:34.104Z,18.13
2022-10-19T22:15:01.652Z,17.63
2022-10-19T22:17:28.987Z,16.75
2022-10-19T22:19:56.307Z,18.10
2022-10-19T22:22:23.624Z,18.65
2022-10-19T22:24:50.792Z,19.73
2022-10-19T22:27:18.315Z,16.20
2022-10-19T22:29:45.677Z,17.85
2022-10-19T22:32:13.147Z,18.33
2022-10-19T22:34:40.386Z,19.55
2022-10-19T22:37:07.632Z,18.63
2022-10-19T22:39:34.882Z,18.52
2022-10-19T22:42:20.698Z,18.13
2022-10-19T22:44:48.024Z,18.88
2022-10-19T22:47:15.392Z,18.75
2022-10-19T22:49:42.729Z,21.02
2022-10-19T22:52:09.939Z,17.98
2022-10-19T22:54:37.175Z,19.15
2022-10-19T22:57:04.420Z,18.95
2022-10-19T22:59:31.869Z,17.90
2022-10-19T23:01:59.171Z,17.92
2022-10-19T23:04:26.509Z,16.48
2022-10-19T23:06:53.845Z,17.55
2022-10-19T23:09:21.390Z,17.58
2022-10-19T23:11:49.065Z,18.77
2022-10-19T23:14:16.340Z,21.15
2022-10-19T23:16:43.570Z,18.23
2022-10-19T23:19:11.021Z,17.38
2022-10-19T23:21:38.250Z,17.48
2022-10-19T23:24:05.458Z,15.65
2022-10-19T23:26:32.821Z,18.90
2022-10-19T23:29:18.890Z,18.05
2022-10-19T23:31:46.208Z,14.55
2022-10-19T23:34:13.450Z,18.95
2022-10-19T23:36:40.772Z,18.67
2022-10-19T23:39:08.052Z,18.23
2022-10-19T23:41:38.455Z,18.67
2022-10-19T23:44:05.632Z,19.02
2022-10-19T23:46:33.079Z,20.08
2022-10-19T23:49:00.252Z,19.48
2022-10-19T23:51:27.522Z,17.52
2022-10-19T23:53:55.223Z,18.20
2022-10-19T23:56:22.446Z,20.83
2022-10-19T23:58:49.761Z,19.40
